sensor_id;sensor_type;location;lat;lon;timestamp;P1;durP1;ratioP1;P2;durP2;ratioP2
20697;SDS011;10508;50.956;4.640;2022-08-19T00:01:32;7.00;;;5.22;;
20697;SDS011;10508;50.956;4.640;2022-08-19T00:04:00;8.05;;;6.25;;
20697;SDS011;10508;50.956;4.640;2022-08-19T00:06:28;7.00;;;5.00;;
20697;SDS011;10508;50.956;4.640;2022-08-19T00:08:54;8.50;;;5.97;;
20697;SDS011;10508;50.956;4.640;2022-08-19T00:11:22;8.90;;;6.72;;
20697;SDS011;10508;50.956;4.640;2022-08-19T00:13:49;10.40;;;6.57;;
20697;SDS011;10508;50.956;4.640;2022-08-19T00:16:15;10.82;;;6.80;;
20697;SDS011;10508;50.956;4.640;2022-08-19T00:18:44;9.77;;;6.97;;
20697;SDS011;10508;50.956;4.640;2022-08-19T00:21:10;13.05;;;7.45;;
20697;SDS011;10508;50.956;4.640;2022-08-19T00:23:36;10.75;;;7.05;;
20697;SDS011;10508;50.956;4.640;2022-08-19T00:26:03;13.57;;;8.38;;
20697;SDS011;10508;50.956;4.640;2022-08-19T00:28:29;11.30;;;7.13;;
20697;SDS011;10508;50.956;4.640;2022-08-19T00:30:55;12.40;;;8.20;;
20697;SDS011;10508;50.956;4.640;2022-08-19T00:33:21;12.20;;;7.10;;
20697;SDS011;10508;50.956;4.640;2022-08-19T00:35:46;11.13;;;6.57;;
20697;SDS011;10508;50.956;4.640;2022-08-19T00:38:12;10.63;;;6.85;;
20697;SDS011;10508;50.956;4.640;2022-08-19T00:40:38;11.68;;;6.53;;
20697;SDS011;10508;50.956;4.640;2022-08-19T00:43:07;9.23;;;6.30;;
20697;SDS011;10508;50.956;4.640;2022-08-19T00:45:38;12.93;;;7.53;;
20697;SDS011;10508;50.956;4.640;2022-08-19T00:48:09;12.90;;;6.82;;
20697;SDS011;10508;50.956;4.640;2022-08-19T00:50:35;9.88;;;6.85;;
20697;SDS011;10508;50.956;4.640;2022-08-19T00:53:01;10.75;;;6.65;;
20697;SDS011;10508;50.956;4.640;2022-08-19T00:55:29;14.27;;;7.93;;
20697;SDS011;10508;50.956;4.640;2022-08-19T00:58:04;10.52;;;7.30;;
20697;SDS011;10508;50.956;4.640;2022-08-19T01:00:35;14.07;;;8.35;;
20697;SDS011;10508;50.956;4.640;2022-08-19T01:03:03;16.42;;;9.15;;
20697;SDS011;10508;50.956;4.640;2022-08-19T01:05:33;15.75;;;9.35;;
20697;SDS011;10508;50.956;4.640;2022-08-19T01:08:00;16.63;;;9.95;;
20697;SDS011;10508;50.956;4.640;2022-08-19T01:10:29;14.77;;;9.40;;
20697;SDS011;10508;50.956;4.640;2022-08-19T01:12:58;18.50;;;10.40;;
20697;SDS011;10508;50.956;4.640;2022-08-19T01:15:29;18.85;;;10.85;;
20697;SDS011;10508;50.956;4.640;2022-08-19T01:17:57;20.73;;;11.05;;
20697;SDS011;10508;50.956;4.640;2022-08-19T01:20:29;21.77;;;10.93;;
20697;SDS011;10508;50.956;4.640;2022-08-19T01:22:57;18.55;;;10.52;;
20697;SDS011;10508;50.956;4.640;2022-08-19T01:25:43;25.15;;;13.13;;
20697;SDS011;10508;50.956;4.640;2022-08-19T01:28:29;24.83;;;13.52;;
20697;SDS011;10508;50.956;4.640;2022-08-19T01:30:55;24.23;;;13.07;;
20697;SDS011;10508;50.956;4.640;2022-08-19T01:33:21;23.70;;;12.25;;
20697;SDS011;10508;50.956;4.640;2022-08-19T01:35:47;25.00;;;13.45;;
20697;SDS011;10508;50.956;4.640;2022-08-19T01:38:23;23.05;;;13.07;;
20697;SDS011;10508;50.956;4.640;2022-08-19T01:40:51;23.63;;;12.32;;
20697;SDS011;10508;50.956;4.640;2022-08-19T01:43:17;24.60;;;12.93;;
20697;SDS011;10508;50.956;4.640;2022-08-19T01:45:44;23.25;;;10.98;;
20697;SDS011;10508;50.956;4.640;2022-08-19T01:48:10;22.88;;;12.55;;
20697;SDS011;10508;50.956;4.640;2022-08-19T01:50:37;23.30;;;13.13;;
20697;SDS011;10508;50.956;4.640;2022-08-19T01:53:03;26.25;;;13.52;;
20697;SDS011;10508;50.956;4.640;2022-08-19T01:55:30;33.65;;;15.25;;
20697;SDS011;10508;50.956;4.640;2022-08-19T01:57:58;27.25;;;15.68;;
20697;SDS011;10508;50.956;4.640;2022-08-19T02:00:28;30.77;;;15.55;;
20697;SDS011;10508;50.956;4.640;2022-08-19T02:02:56;31.90;;;16.52;;
20697;SDS011;10508;50.956;4.640;2022-08-19T02:05:21;30.60;;;15.27;;
20697;SDS011;10508;50.956;4.640;2022-08-19T02:07:48;38.45;;;18.70;;
20697;SDS011;10508;50.956;4.640;2022-08-19T02:10:16;34.25;;;17.27;;
20697;SDS011;10508;50.956;4.640;2022-08-19T02:12:44;34.45;;;16.77;;
20697;SDS011;10508;50.956;4.640;2022-08-19T02:15:11;36.92;;;16.40;;
20697;SDS011;10508;50.956;4.640;2022-08-19T02:17:56;33.65;;;17.40;;
20697;SDS011;10508;50.956;4.640;2022-08-19T02:20:21;31.45;;;16.40;;
20697;SDS011;10508;50.956;4.640;2022-08-19T02:22:47;29.48;;;15.57;;
20697;SDS011;10508;50.956;4.640;2022-08-19T02:25:13;33.42;;;16.50;;
20697;SDS011;10508;50.956;4.640;2022-08-19T02:27:40;33.47;;;16.73;;
20697;SDS011;10508;50.956;4.640;2022-08-19T02:30:07;34.65;;;17.58;;
20697;SDS011;10508;50.956;4.640;2022-08-19T02:32:35;35.65;;;17.35;;
20697;SDS011;10508;50.956;4.640;2022-08-19T02:35:01;32.85;;;17.20;;
20697;SDS011;10508;50.956;4.640;2022-08-19T02:37:28;38.55;;;18.17;;
20697;SDS011;10508;50.956;4.640;2022-08-19T02:40:12;39.63;;;17.45;;
20697;SDS011;10508;50.956;4.640;2022-08-19T02:42:38;28.35;;;15.30;;
20697;SDS011;10508;50.956;4.640;2022-08-19T02:45:05;43.10;;;17.63;;
20697;SDS011;10508;50.956;4.640;2022-08-19T02:47:32;34.03;;;16.50;;
20697;SDS011;10508;50.956;4.640;2022-08-19T02:50:00;38.03;;;17.27;;
20697;SDS011;10508;50.956;4.640;2022-08-19T02:52:27;37.45;;;18.35;;
20697;SDS011;10508;50.956;4.640;2022-08-19T02:54:53;35.20;;;17.15;;
20697;SDS011;10508;50.956;4.640;2022-08-19T02:57:22;32.03;;;16.60;;
20697;SDS011;10508;50.956;4.640;2022-08-19T02:59:48;33.72;;;17.08;;
20697;SDS011;10508;50.956;4.640;2022-08-19T03:02:14;31.95;;;15.25;;
20697;SDS011;10508;50.956;4.640;2022-08-19T03:04:41;35.95;;;16.75;;
20697;SDS011;10508;50.956;4.640;2022-08-19T03:07:07;34.05;;;17.00;;
20697;SDS011;10508;50.956;4.640;2022-08-19T03:09:36;33.63;;;16.05;;
20697;SDS011;10508;50.956;4.640;2022-08-19T03:12:03;36.83;;;17.75;;
20697;SDS011;10508;50.956;4.640;2022-08-19T03:14:32;35.10;;;17.42;;
20697;SDS011;10508;50.956;4.640;2022-08-19T03:16:59;34.38;;;16.35;;
20697;SDS011;10508;50.956;4.640;2022-08-19T03:19:24;39.65;;;18.58;;
20697;SDS011;10508;50.956;4.640;2022-08-19T03:21:50;37.38;;;18.50;;
20697;SDS011;10508;50.956;4.640;2022-08-19T03:24:17;36.85;;;17.85;;
20697;SDS011;10508;50.956;4.640;2022-08-19T03:26:45;36.00;;;17.58;;
20697;SDS011;10508;50.956;4.640;2022-08-19T03:29:13;40.22;;;19.48;;
20697;SDS011;10508;50.956;4.640;2022-08-19T03:31:40;42.35;;;19.15;;
20697;SDS011;10508;50.956;4.640;2022-08-19T03:34:08;38.90;;;18.92;;
20697;SDS011;10508;50.956;4.640;2022-08-19T03:36:36;33.50;;;17.55;;
20697;SDS011;10508;50.956;4.640;2022-08-19T03:39:02;36.80;;;17.15;;
20697;SDS011;10508;50.956;4.640;2022-08-19T03:41:38;35.30;;;16.63;;
20697;SDS011;10508;50.956;4.640;2022-08-19T03:44:05;38.85;;;18.17;;
20697;SDS011;10508;50.956;4.640;2022-08-19T03:46:33;32.70;;;15.85;;
20697;SDS011;10508;50.956;4.640;2022-08-19T03:49:00;36.53;;;17.60;;
20697;SDS011;10508;50.956;4.640;2022-08-19T03:51:33;39.05;;;17.33;;
20697;SDS011;10508;50.956;4.640;2022-08-19T03:54:01;41.03;;;18.13;;
20697;SDS011;10508;50.956;4.640;2022-08-19T03:56:29;38.88;;;18.00;;
20697;SDS011;10508;50.956;4.640;2022-08-19T03:58:56;38.67;;;16.92;;
20697;SDS011;10508;50.956;4.640;2022-08-19T04:01:23;37.65;;;17.17;;
20697;SDS011;10508;50.956;4.640;2022-08-19T04:03:51;36.17;;;16.35;;
20697;SDS011;10508;50.956;4.640;2022-08-19T04:06:22;35.60;;;16.20;;
20697;SDS011;10508;50.956;4.640;2022-08-19T04:08:49;30.55;;;15.20;;
20697;SDS011;10508;50.956;4.640;2022-08-19T04:11:21;32.63;;;16.35;;
20697;SDS011;10508;50.956;4.640;2022-08-19T04:13:49;39.47;;;16.60;;
20697;SDS011;10508;50.956;4.640;2022-08-19T04:16:19;29.33;;;14.85;;
20697;SDS011;10508;50.956;4.640;2022-08-19T04:18:47;32.58;;;15.38;;
20697;SDS011;10508;50.956;4.640;2022-08-19T04:21:17;32.72;;;15.23;;
20697;SDS011;10508;50.956;4.640;2022-08-19T04:23:50;29.42;;;15.27;;
20697;SDS011;10508;50.956;4.640;2022-08-19T04:26:17;32.22;;;14.50;;
20697;SDS011;10508;50.956;4.640;2022-08-19T04:28:46;31.63;;;13.82;;
20697;SDS011;10508;50.956;4.640;2022-08-19T04:31:17;28.00;;;14.15;;
20697;SDS011;10508;50.956;4.640;2022-08-19T04:33:44;30.83;;;13.38;;
20697;SDS011;10508;50.956;4.640;2022-08-19T04:36:17;33.35;;;13.63;;
20697;SDS011;10508;50.956;4.640;2022-08-19T04:38:47;25.40;;;13.18;;
20697;SDS011;10508;50.956;4.640;2022-08-19T04:41:14;28.77;;;14.80;;
20697;SDS011;10508;50.956;4.640;2022-08-19T04:43:59;32.78;;;14.30;;
20697;SDS011;10508;50.956;4.640;2022-08-19T04:46:25;24.55;;;12.82;;
20697;SDS011;10508;50.956;4.640;2022-08-19T04:48:51;28.15;;;12.15;;
20697;SDS011;10508;50.956;4.640;2022-08-19T04:51:17;26.98;;;12.43;;
20697;SDS011;10508;50.956;4.640;2022-08-19T04:53:43;24.30;;;12.20;;
20697;SDS011;10508;50.956;4.640;2022-08-19T04:56:13;24.63;;;12.18;;
20697;SDS011;10508;50.956;4.640;2022-08-19T04:58:42;23.05;;;10.85;;
20697;SDS011;10508;50.956;4.640;2022-08-19T05:01:13;24.38;;;11.52;;
20697;SDS011;10508;50.956;4.640;2022-08-19T05:03:42;26.92;;;11.52;;
20697;SDS011;10508;50.956;4.640;2022-08-19T05:06:10;24.40;;;10.75;;
20697;SDS011;10508;50.956;4.640;2022-08-19T05:08:38;29.20;;;11.43;;
20697;SDS011;10508;50.956;4.640;2022-08-19T05:11:12;20.90;;;11.77;;
20697;SDS011;10508;50.956;4.640;2022-08-19T05:13:46;31.05;;;11.15;;
20697;SDS011;10508;50.956;4.640;2022-08-19T05:16:13;22.90;;;11.40;;
20697;SDS011;10508;50.956;4.640;2022-08-19T05:18:40;23.88;;;10.85;;
20697;SDS011;10508;50.956;4.640;2022-08-19T05:21:24;29.92;;;10.85;;
20697;SDS011;10508;50.956;4.640;2022-08-19T05:24:09;22.67;;;10.82;;
20697;SDS011;10508;50.956;4.640;2022-08-19T05:26:36;23.50;;;10.90;;
20697;SDS011;10508;50.956;4.640;2022-08-19T05:29:03;26.55;;;11.15;;
20697;SDS011;10508;50.956;4.640;2022-08-19T05:31:29;27.45;;;11.05;;
20697;SDS011;10508;50.956;4.640;2022-08-19T05:33:56;21.63;;;10.75;;
20697;SDS011;10508;50.956;4.640;2022-08-19T05:36:23;21.75;;;10.63;;
20697;SDS011;10508;50.956;4.640;2022-08-19T05:38:52;28.85;;;10.48;;
20697;SDS011;10508;50.956;4.640;2022-08-19T05:41:18;19.88;;;9.88;;
20697;SDS011;10508;50.956;4.640;2022-08-19T05:43:45;20.10;;;10.10;;
20697;SDS011;10508;50.956;4.640;2022-08-19T05:46:18;20.63;;;9.82;;
20697;SDS011;10508;50.956;4.640;2022-08-19T05:48:44;20.83;;;9.95;;
20697;SDS011;10508;50.956;4.640;2022-08-19T05:51:10;23.10;;;9.00;;
20697;SDS011;10508;50.956;4.640;2022-08-19T05:53:36;19.70;;;9.52;;
20697;SDS011;10508;50.956;4.640;2022-08-19T05:56:09;17.77;;;8.27;;
20697;SDS011;10508;50.956;4.640;2022-08-19T05:58:38;20.50;;;8.70;;
20697;SDS011;10508;50.956;4.640;2022-08-19T06:01:14;22.17;;;8.38;;
20697;SDS011;10508;50.956;4.640;2022-08-19T06:03:41;21.52;;;9.10;;
20697;SDS011;10508;50.956;4.640;2022-08-19T06:06:08;16.48;;;8.20;;
20697;SDS011;10508;50.956;4.640;2022-08-19T06:08:35;20.08;;;8.68;;
20697;SDS011;10508;50.956;4.640;2022-08-19T06:11:13;18.08;;;8.45;;
20697;SDS011;10508;50.956;4.640;2022-08-19T06:13:42;14.45;;;7.82;;
20697;SDS011;10508;50.956;4.640;2022-08-19T06:16:08;16.42;;;8.90;;
20697;SDS011;10508;50.956;4.640;2022-08-19T06:18:34;18.63;;;8.68;;
20697;SDS011;10508;50.956;4.640;2022-08-19T06:20:59;17.27;;;8.20;;
20697;SDS011;10508;50.956;4.640;2022-08-19T06:23:28;17.85;;;8.55;;
20697;SDS011;10508;50.956;4.640;2022-08-19T06:25:54;16.27;;;7.78;;
20697;SDS011;10508;50.956;4.640;2022-08-19T06:28:20;18.02;;;8.10;;
20697;SDS011;10508;50.956;4.640;2022-08-19T06:30:45;16.58;;;7.95;;
20697;SDS011;10508;50.956;4.640;2022-08-19T06:33:11;21.30;;;8.20;;
20697;SDS011;10508;50.956;4.640;2022-08-19T06:35:40;18.08;;;7.85;;
20697;SDS011;10508;50.956;4.640;2022-08-19T06:38:06;15.23;;;8.00;;
20697;SDS011;10508;50.956;4.640;2022-08-19T06:40:32;17.42;;;7.95;;
20697;SDS011;10508;50.956;4.640;2022-08-19T06:42:57;15.18;;;8.38;;
20697;SDS011;10508;50.956;4.640;2022-08-19T06:45:25;13.80;;;7.65;;
20697;SDS011;10508;50.956;4.640;2022-08-19T06:47:51;14.75;;;8.25;;
20697;SDS011;10508;50.956;4.640;2022-08-19T06:50:20;23.48;;;8.23;;
20697;SDS011;10508;50.956;4.640;2022-08-19T06:52:47;18.80;;;7.53;;
20697;SDS011;10508;50.956;4.640;2022-08-19T06:55:12;16.92;;;8.05;;
20697;SDS011;10508;50.956;4.640;2022-08-19T06:57:38;15.63;;;7.63;;
20697;SDS011;10508;50.956;4.640;2022-08-19T07:00:22;16.27;;;7.90;;
20697;SDS011;10508;50.956;4.640;2022-08-19T07:02:48;18.27;;;7.47;;
20697;SDS011;10508;50.956;4.640;2022-08-19T07:05:14;24.45;;;7.88;;
20697;SDS011;10508;50.956;4.640;2022-08-19T07:07:39;14.93;;;7.85;;
20697;SDS011;10508;50.956;4.640;2022-08-19T07:10:08;17.30;;;7.53;;
20697;SDS011;10508;50.956;4.640;2022-08-19T07:12:34;12.70;;;6.32;;
20697;SDS011;10508;50.956;4.640;2022-08-19T07:15:00;16.05;;;7.45;;
20697;SDS011;10508;50.956;4.640;2022-08-19T07:17:25;14.57;;;6.35;;
20697;SDS011;10508;50.956;4.640;2022-08-19T07:19:51;15.63;;;6.85;;
20697;SDS011;10508;50.956;4.640;2022-08-19T07:22:17;8.27;;;5.40;;
20697;SDS011;10508;50.956;4.640;2022-08-19T07:24:45;13.75;;;5.35;;
20697;SDS011;10508;50.956;4.640;2022-08-19T07:27:13;9.48;;;4.82;;
20697;SDS011;10508;50.956;4.640;2022-08-19T07:29:39;8.75;;;4.20;;
20697;SDS011;10508;50.956;4.640;2022-08-19T07:32:05;10.80;;;4.10;;
20697;SDS011;10508;50.956;4.640;2022-08-19T07:34:31;9.15;;;4.13;;
20697;SDS011;10508;50.956;4.640;2022-08-19T07:37:01;7.75;;;4.20;;
20697;SDS011;10508;50.956;4.640;2022-08-19T07:39:29;8.50;;;4.18;;
20697;SDS011;10508;50.956;4.640;2022-08-19T07:42:09;13.05;;;4.10;;
20697;SDS011;10508;50.956;4.640;2022-08-19T07:44:36;11.45;;;4.05;;
20697;SDS011;10508;50.956;4.640;2022-08-19T07:47:03;10.68;;;4.45;;
20697;SDS011;10508;50.956;4.640;2022-08-19T07:49:29;11.82;;;4.75;;
20697;SDS011;10508;50.956;4.640;2022-08-19T07:51:57;6.43;;;3.53;;
20697;SDS011;10508;50.956;4.640;2022-08-19T07:54:27;11.70;;;3.92;;
20697;SDS011;10508;50.956;4.640;2022-08-19T07:56:55;9.45;;;4.20;;
20697;SDS011;10508;50.956;4.640;2022-08-19T07:59:22;10.85;;;5.07;;
20697;SDS011;10508;50.956;4.640;2022-08-19T08:01:48;9.15;;;5.07;;
20697;SDS011;10508;50.956;4.640;2022-08-19T08:04:15;13.32;;;5.07;;
20697;SDS011;10508;50.956;4.640;2022-08-19T08:06:59;6.80;;;3.75;;
20697;SDS011;10508;50.956;4.640;2022-08-19T08:09:44;10.15;;;5.18;;
20697;SDS011;10508;50.956;4.640;2022-08-19T08:14:58;9.93;;;4.70;;
20697;SDS011;10508;50.956;4.640;2022-08-19T08:17:28;6.55;;;3.58;;
20697;SDS011;10508;50.956;4.640;2022-08-19T08:19:55;5.95;;;3.85;;
20697;SDS011;10508;50.956;4.640;2022-08-19T08:22:22;7.95;;;3.58;;
20697;SDS011;10508;50.956;4.640;2022-08-19T08:25:11;5.43;;;3.05;;
20697;SDS011;10508;50.956;4.640;2022-08-19T08:27:40;7.72;;;3.30;;
20697;SDS011;10508;50.956;4.640;2022-08-19T08:30:11;8.10;;;3.88;;
20697;SDS011;10508;50.956;4.640;2022-08-19T08:32:50;5.30;;;3.50;;
20697;SDS011;10508;50.956;4.640;2022-08-19T08:35:17;7.20;;;3.70;;
20697;SDS011;10508;50.956;4.640;2022-08-19T08:37:46;7.75;;;3.45;;
20697;SDS011;10508;50.956;4.640;2022-08-19T08:40:39;11.27;;;4.03;;
20697;SDS011;10508;50.956;4.640;2022-08-19T08:46:13;12.00;;;4.35;;
20697;SDS011;10508;50.956;4.640;2022-08-19T08:48:52;6.88;;;3.65;;
20697;SDS011;10508;50.956;4.640;2022-08-19T08:51:34;8.15;;;3.88;;
20697;SDS011;10508;50.956;4.640;2022-08-19T08:54:13;8.57;;;3.60;;
20697;SDS011;10508;50.956;4.640;2022-08-19T08:56:43;6.15;;;3.38;;
20697;SDS011;10508;50.956;4.640;2022-08-19T08:59:12;7.13;;;2.75;;
20697;SDS011;10508;50.956;4.640;2022-08-19T09:01:45;6.88;;;2.33;;
20697;SDS011;10508;50.956;4.640;2022-08-19T09:04:11;3.55;;;2.33;;
20697;SDS011;10508;50.956;4.640;2022-08-19T09:06:40;3.65;;;2.47;;
20697;SDS011;10508;50.956;4.640;2022-08-19T09:09:37;8.60;;;2.40;;
20697;SDS011;10508;50.956;4.640;2022-08-19T09:14:52;7.47;;;3.40;;
20697;SDS011;10508;50.956;4.640;2022-08-19T09:17:26;5.07;;;3.00;;
20697;SDS011;10508;50.956;4.640;2022-08-19T09:22:25;9.32;;;3.45;;
20697;SDS011;10508;50.956;4.640;2022-08-19T09:24:51;5.85;;;3.25;;
20697;SDS011;10508;50.956;4.640;2022-08-19T09:27:18;10.18;;;3.53;;
20697;SDS011;10508;50.956;4.640;2022-08-19T09:29:45;5.78;;;3.40;;
20697;SDS011;10508;50.956;4.640;2022-08-19T09:32:13;7.32;;;3.42;;
20697;SDS011;10508;50.956;4.640;2022-08-19T09:34:39;5.15;;;3.50;;
20697;SDS011;10508;50.956;4.640;2022-08-19T09:37:04;8.90;;;3.58;;
20697;SDS011;10508;50.956;4.640;2022-08-19T09:39:30;4.45;;;2.60;;
20697;SDS011;10508;50.956;4.640;2022-08-19T09:41:56;5.32;;;3.33;;
20697;SDS011;10508;50.956;4.640;2022-08-19T09:44:21;6.22;;;2.95;;
20697;SDS011;10508;50.956;4.640;2022-08-19T09:46:48;5.40;;;3.38;;
20697;SDS011;10508;50.956;4.640;2022-08-19T09:49:15;5.53;;;3.00;;
20697;SDS011;10508;50.956;4.640;2022-08-19T09:51:49;4.68;;;2.63;;
20697;SDS011;10508;50.956;4.640;2022-08-19T09:54:16;7.50;;;3.50;;
20697;SDS011;10508;50.956;4.640;2022-08-19T09:56:42;5.22;;;3.45;;
20697;SDS011;10508;50.956;4.640;2022-08-19T09:59:08;7.13;;;2.80;;
20697;SDS011;10508;50.956;4.640;2022-08-19T10:01:34;3.80;;;2.78;;
20697;SDS011;10508;50.956;4.640;2022-08-19T10:04:00;3.83;;;2.85;;
20697;SDS011;10508;50.956;4.640;2022-08-19T10:06:27;5.85;;;2.80;;
20697;SDS011;10508;50.956;4.640;2022-08-19T10:08:58;6.75;;;3.22;;
20697;SDS011;10508;50.956;4.640;2022-08-19T10:11:25;5.05;;;2.95;;
20697;SDS011;10508;50.956;4.640;2022-08-19T10:13:51;7.38;;;3.38;;
20697;SDS011;10508;50.956;4.640;2022-08-19T10:16:18;5.20;;;3.67;;
20697;SDS011;10508;50.956;4.640;2022-08-19T10:18:46;7.00;;;3.80;;
20697;SDS011;10508;50.956;4.640;2022-08-19T10:21:13;5.35;;;3.13;;
20697;SDS011;10508;50.956;4.640;2022-08-19T10:23:43;9.63;;;3.55;;
20697;SDS011;10508;50.956;4.640;2022-08-19T10:26:11;9.63;;;3.63;;
20697;SDS011;10508;50.956;4.640;2022-08-19T10:28:42;9.13;;;3.70;;
20697;SDS011;10508;50.956;4.640;2022-08-19T10:31:09;14.20;;;3.40;;
20697;SDS011;10508;50.956;4.640;2022-08-19T10:33:37;10.18;;;3.38;;
20697;SDS011;10508;50.956;4.640;2022-08-19T10:36:05;6.53;;;3.70;;
20697;SDS011;10508;50.956;4.640;2022-08-19T10:38:36;7.30;;;3.03;;
20697;SDS011;10508;50.956;4.640;2022-08-19T10:41:06;4.82;;;2.60;;
20697;SDS011;10508;50.956;4.640;2022-08-19T10:43:43;5.72;;;2.95;;
20697;SDS011;10508;50.956;4.640;2022-08-19T10:46:11;7.00;;;3.20;;
20697;SDS011;10508;50.956;4.640;2022-08-19T10:48:38;5.70;;;2.80;;
20697;SDS011;10508;50.956;4.640;2022-08-19T10:51:05;4.90;;;2.80;;
20697;SDS011;10508;50.956;4.640;2022-08-19T10:53:50;7.70;;;3.42;;
20697;SDS011;10508;50.956;4.640;2022-08-19T10:56:16;6.97;;;3.25;;
20697;SDS011;10508;50.956;4.640;2022-08-19T10:59:01;7.05;;;3.25;;
20697;SDS011;10508;50.956;4.640;2022-08-19T11:01:28;6.70;;;2.85;;
20697;SDS011;10508;50.956;4.640;2022-08-19T11:03:55;5.50;;;3.13;;
20697;SDS011;10508;50.956;4.640;2022-08-19T11:06:22;5.20;;;3.20;;
20697;SDS011;10508;50.956;4.640;2022-08-19T11:08:50;10.40;;;3.88;;
20697;SDS011;10508;50.956;4.640;2022-08-19T11:11:16;5.70;;;2.85;;
20697;SDS011;10508;50.956;4.640;2022-08-19T11:13:42;6.65;;;2.97;;
20697;SDS011;10508;50.956;4.640;2022-08-19T11:16:13;11.77;;;3.00;;
20697;SDS011;10508;50.956;4.640;2022-08-19T11:18:45;3.33;;;2.10;;
20697;SDS011;10508;50.956;4.640;2022-08-19T11:23:46;5.47;;;2.20;;
20697;SDS011;10508;50.956;4.640;2022-08-19T11:26:14;2.72;;;1.90;;
20697;SDS011;10508;50.956;4.640;2022-08-19T11:28:40;3.88;;;2.13;;
20697;SDS011;10508;50.956;4.640;2022-08-19T11:31:14;2.65;;;2.08;;
20697;SDS011;10508;50.956;4.640;2022-08-19T11:33:42;2.65;;;1.80;;
20697;SDS011;10508;50.956;4.640;2022-08-19T11:36:08;3.25;;;1.95;;
20697;SDS011;10508;50.956;4.640;2022-08-19T11:38:34;9.10;;;2.35;;
20697;SDS011;10508;50.956;4.640;2022-08-19T11:41:13;4.35;;;1.80;;
20697;SDS011;10508;50.956;4.640;2022-08-19T11:43:39;2.65;;;1.85;;
20697;SDS011;10508;50.956;4.640;2022-08-19T11:46:05;4.47;;;1.85;;
20697;SDS011;10508;50.956;4.640;2022-08-19T11:48:32;3.30;;;2.03;;
20697;SDS011;10508;50.956;4.640;2022-08-19T11:50:58;4.32;;;2.72;;
20697;SDS011;10508;50.956;4.640;2022-08-19T11:53:30;3.85;;;2.03;;
20697;SDS011;10508;50.956;4.640;2022-08-19T11:55:55;3.17;;;1.98;;
20697;SDS011;10508;50.956;4.640;2022-08-19T11:58:24;8.43;;;2.70;;
20697;SDS011;10508;50.956;4.640;2022-08-19T12:00:50;3.72;;;2.75;;
20697;SDS011;10508;50.956;4.640;2022-08-19T12:03:16;6.75;;;2.33;;
20697;SDS011;10508;50.956;4.640;2022-08-19T12:05:43;6.40;;;2.55;;
20697;SDS011;10508;50.956;4.640;2022-08-19T12:08:09;4.90;;;2.15;;
20697;SDS011;10508;50.956;4.640;2022-08-19T12:10:36;7.50;;;2.70;;
20697;SDS011;10508;50.956;4.640;2022-08-19T12:13:02;4.05;;;2.30;;
20697;SDS011;10508;50.956;4.640;2022-08-19T12:15:28;4.03;;;2.00;;
20697;SDS011;10508;50.956;4.640;2022-08-19T12:17:54;3.33;;;2.20;;
20697;SDS011;10508;50.956;4.640;2022-08-19T12:20:22;4.53;;;2.35;;
20697;SDS011;10508;50.956;4.640;2022-08-19T12:22:49;8.25;;;2.17;;
20697;SDS011;10508;50.956;4.640;2022-08-19T12:25:15;4.00;;;1.75;;
20697;SDS011;10508;50.956;4.640;2022-08-19T12:27:41;2.65;;;1.80;;
20697;SDS011;10508;50.956;4.640;2022-08-19T12:30:08;5.30;;;1.70;;
20697;SDS011;10508;50.956;4.640;2022-08-19T12:32:35;6.88;;;2.60;;
20697;SDS011;10508;50.956;4.640;2022-08-19T12:35:01;2.00;;;1.70;;
20697;SDS011;10508;50.956;4.640;2022-08-19T12:37:27;4.60;;;2.25;;
20697;SDS011;10508;50.956;4.640;2022-08-19T12:39:54;4.15;;;2.03;;
20697;SDS011;10508;50.956;4.640;2022-08-19T12:42:20;4.20;;;1.85;;
20697;SDS011;10508;50.956;4.640;2022-08-19T12:44:47;6.50;;;2.70;;
20697;SDS011;10508;50.956;4.640;2022-08-19T12:47:13;7.82;;;3.33;;
20697;SDS011;10508;50.956;4.640;2022-08-19T12:49:39;9.70;;;3.97;;
20697;SDS011;10508;50.956;4.640;2022-08-19T12:52:06;7.13;;;3.60;;
20697;SDS011;10508;50.956;4.640;2022-08-19T12:54:33;6.60;;;4.30;;
20697;SDS011;10508;50.956;4.640;2022-08-19T12:57:00;6.20;;;4.10;;
20697;SDS011;10508;50.956;4.640;2022-08-19T12:59:29;7.25;;;4.32;;
20697;SDS011;10508;50.956;4.640;2022-08-19T13:01:55;7.70;;;4.43;;
20697;SDS011;10508;50.956;4.640;2022-08-19T13:04:39;6.18;;;3.88;;
20697;SDS011;10508;50.956;4.640;2022-08-19T13:07:06;6.43;;;4.38;;
20697;SDS011;10508;50.956;4.640;2022-08-19T13:09:33;6.82;;;4.38;;
20697;SDS011;10508;50.956;4.640;2022-08-19T13:11:59;8.52;;;4.35;;
20697;SDS011;10508;50.956;4.640;2022-08-19T13:14:28;7.00;;;4.53;;
20697;SDS011;10508;50.956;4.640;2022-08-19T13:16:55;4.82;;;3.05;;
20697;SDS011;10508;50.956;4.640;2022-08-19T13:19:22;6.57;;;3.70;;
20697;SDS011;10508;50.956;4.640;2022-08-19T13:21:51;6.93;;;3.90;;
20697;SDS011;10508;50.956;4.640;2022-08-19T13:24:20;6.45;;;3.67;;
20697;SDS011;10508;50.956;4.640;2022-08-19T13:26:46;7.68;;;4.00;;
20697;SDS011;10508;50.956;4.640;2022-08-19T13:29:12;9.65;;;3.50;;
20697;SDS011;10508;50.956;4.640;2022-08-19T13:31:56;7.03;;;3.05;;
20697;SDS011;10508;50.956;4.640;2022-08-19T13:34:42;5.97;;;2.30;;
20697;SDS011;10508;50.956;4.640;2022-08-19T13:37:07;4.63;;;2.63;;
20697;SDS011;10508;50.956;4.640;2022-08-19T13:39:34;5.32;;;2.50;;
20697;SDS011;10508;50.956;4.640;2022-08-19T13:42:01;2.97;;;2.35;;
20697;SDS011;10508;50.956;4.640;2022-08-19T13:44:29;7.25;;;2.78;;
20697;SDS011;10508;50.956;4.640;2022-08-19T13:46:55;4.25;;;2.47;;
20697;SDS011;10508;50.956;4.640;2022-08-19T13:49:32;3.45;;;2.45;;
20697;SDS011;10508;50.956;4.640;2022-08-19T13:52:00;4.35;;;2.35;;
20697;SDS011;10508;50.956;4.640;2022-08-19T13:54:26;3.88;;;2.35;;
20697;SDS011;10508;50.956;4.640;2022-08-19T13:56:52;3.78;;;2.08;;
20697;SDS011;10508;50.956;4.640;2022-08-19T13:59:18;3.05;;;1.80;;
20697;SDS011;10508;50.956;4.640;2022-08-19T14:01:44;1.40;;;1.30;;
20697;SDS011;10508;50.956;4.640;2022-08-19T14:04:10;1.85;;;1.50;;
20697;SDS011;10508;50.956;4.640;2022-08-19T14:06:35;1.77;;;1.40;;
20697;SDS011;10508;50.956;4.640;2022-08-19T14:09:01;2.78;;;1.55;;
20697;SDS011;10508;50.956;4.640;2022-08-19T14:11:27;3.17;;;1.75;;
20697;SDS011;10508;50.956;4.640;2022-08-19T14:13:54;6.47;;;1.67;;
20697;SDS011;10508;50.956;4.640;2022-08-19T14:16:34;2.78;;;1.73;;
20697;SDS011;10508;50.956;4.640;2022-08-19T14:19:00;4.78;;;1.38;;
20697;SDS011;10508;50.956;4.640;2022-08-19T14:21:25;1.90;;;1.40;;
20697;SDS011;10508;50.956;4.640;2022-08-19T14:23:51;1.98;;;1.23;;
20697;SDS011;10508;50.956;4.640;2022-08-19T14:26:18;1.45;;;0.98;;
20697;SDS011;10508;50.956;4.640;2022-08-19T14:28:45;2.80;;;1.20;;
20697;SDS011;10508;50.956;4.640;2022-08-19T14:31:11;2.15;;;1.10;;
20697;SDS011;10508;50.956;4.640;2022-08-19T14:33:41;2.95;;;1.20;;
20697;SDS011;10508;50.956;4.640;2022-08-19T14:36:07;2.53;;;1.10;;
20697;SDS011;10508;50.956;4.640;2022-08-19T14:38:32;1.33;;;1.10;;
20697;SDS011;10508;50.956;4.640;2022-08-19T14:41:09;1.60;;;0.82;;
20697;SDS011;10508;50.956;4.640;2022-08-19T14:43:44;2.42;;;0.93;;
20697;SDS011;10508;50.956;4.640;2022-08-19T14:46:12;1.15;;;0.85;;
20697;SDS011;10508;50.956;4.640;2022-08-19T14:48:44;2.28;;;1.13;;
20697;SDS011;10508;50.956;4.640;2022-08-19T14:51:10;2.13;;;1.33;;
20697;SDS011;10508;50.956;4.640;2022-08-19T14:53:36;1.27;;;1.15;;
20697;SDS011;10508;50.956;4.640;2022-08-19T14:56:06;1.02;;;0.80;;
20697;SDS011;10508;50.956;4.640;2022-08-19T14:58:37;1.48;;;0.90;;